Time;durP1;ratioP1;P1;durP2;ratioP2;P2;SDS_P1;SDS_P2;PMS_P1;PMS_P2;Temp;Humidity;BMP_temperature;BMP_pressure;BME280_temperature;BME280_humidity;BME280_pressure;Samples;Min_cycle;Max_cycle;Signal;HPM_P1;HPM_P2
2022/03/17 00:01:11;;;;;;;31.17;21.15;;;;;;;7.47;70.09;99576.84;5053255;28;20111;-78
2022/03/17 00:03:36;;;;;;;34.72;22.10;;;;;;;7.49;70.36;99574.00;5063978;28;20085;-78
2022/03/17 00:06:01;;;;;;;36.90;23.10;;;;;;;7.48;70.40;99581.16;5078730;28;20069;-78
2022/03/17 00:08:27;;;;;;;41.38;23.25;;;;;;;7.43;70.29;99566.84;5062339;28;20040;-78
2022/03/17 00:10:52;;;;;;;36.20;23.25;;;;;;;7.46;70.40;99577.91;5044234;28;20041;-78
2022/03/17 00:13:19;;;;;;;34.92;22.83;;;;;;;7.38;70.33;99564.84;5075640;28;20427;-78
2022/03/17 00:15:44;;;;;;;33.30;22.63;;;;;;;7.47;70.47;99568.06;5055072;28;20025;-78
2022/03/17 00:18:10;;;;;;;37.80;22.92;;;;;;;7.44;70.90;99560.53;5067125;28;21918;-78
2022/03/17 00:20:36;;;;;;;33.53;22.33;;;;;;;7.39;70.15;99563.00;5068780;28;20021;-78
2022/03/17 00:23:01;;;;;;;36.38;23.08;;;;;;;7.43;71.01;99575.66;5057732;28;20045;-78
2022/03/17 00:25:29;;;;;;;36.13;23.83;;;;;;;7.33;70.51;99561.19;5060837;28;20035;-78
2022/03/17 00:27:54;;;;;;;35.38;22.42;;;;;;;7.42;70.13;99571.38;5051627;28;20622;-78
2022/03/17 00:30:20;;;;;;;36.50;23.05;;;;;;;7.41;70.64;99588.31;5060293;28;20087;-78
2022/03/17 00:32:45;;;;;;;32.65;22.70;;;;;;;7.40;70.30;99578.72;5050720;28;20041;-78
2022/03/17 00:37:55;;;;;;;38.70;23.33;;;;;;;7.39;70.34;99587.72;5066000;28;20264;-78
2022/03/17 00:40:21;;;;;;;39.00;24.25;;;;;;;7.39;70.56;99578.94;5061877;28;20025;-78
2022/03/17 00:42:47;;;;;;;33.78;22.20;;;;;;;7.34;70.66;99581.41;5063833;28;20048;-78
2022/03/17 00:45:12;;;;;;;34.22;23.83;;;;;;;7.40;70.48;99586.69;5057795;28;20045;-78
2022/03/17 00:47:38;;;;;;;33.97;22.85;;;;;;;7.42;70.99;99579.34;5059293;28;20488;-78
2022/03/17 00:50:06;;;;;;;34.58;23.40;;;;;;;7.42;71.00;99592.63;5072002;28;20039;-78
2022/03/17 00:52:31;;;;;;;37.65;23.80;;;;;;;7.33;71.04;99562.00;5065170;28;20024;-78
2022/03/17 00:54:57;;;;;;;39.75;23.90;;;;;;;7.39;70.18;99579.75;5068702;28;20039;-78
2022/03/17 00:57:23;;;;;;;36.30;22.80;;;;;;;7.41;70.77;99585.66;5058305;28;20031;-78
2022/03/17 00:59:49;;;;;;;37.25;24.08;;;;;;;7.39;71.32;99574.44;5063932;28;20024;-78
2022/03/17 01:02:15;;;;;;;38.72;23.63;;;;;;;7.39;70.81;99574.44;5063081;28;20029;-78
2022/03/17 01:04:40;;;;;;;37.35;23.98;;;;;;;7.41;70.13;99593.63;5060916;28;20128;-78
2022/03/17 01:07:05;;;;;;;36.38;22.67;;;;;;;7.41;70.51;99590.16;5051113;28;20127;-78
2022/03/17 01:09:32;;;;;;;37.40;23.60;;;;;;;7.32;70.51;99570.16;5062388;28;20056;-78
2022/03/17 01:11:58;;;;;;;38.63;24.77;;;;;;;7.32;70.45;99578.97;5060972;28;20070;-78
2022/03/17 01:14:23;;;;;;;35.38;23.58;;;;;;;7.32;70.57;99575.47;5074844;28;20025;-78
2022/03/17 01:16:50;;;;;;;35.47;24.08;;;;;;;7.34;70.82;99579.56;5077225;28;20193;-78
2022/03/17 01:19:19;;;;;;;40.80;25.33;;;;;;;7.35;71.13;99588.34;5034825;28;20037;-78
2022/03/17 01:21:45;;;;;;;33.55;23.65;;;;;;;7.38;70.80;99591.38;5054861;28;20479;-78
2022/03/17 01:24:10;;;;;;;38.78;24.63;;;;;;;7.26;70.80;99568.34;5064737;28;20504;-78
2022/03/17 01:26:36;;;;;;;37.72;25.10;;;;;;;7.36;70.21;99582.81;5060735;28;20036;-77
2022/03/17 01:29:02;;;;;;;37.53;23.15;;;;;;;7.32;70.86;99584.28;5050853;28;20032;-78
2022/03/17 01:31:28;;;;;;;31.73;22.33;;;;;;;7.37;70.63;99600.41;5066376;28;20086;-78
2022/03/17 01:34:12;;;;;;;38.08;24.45;;;;;;;7.29;70.35;99587.34;5033000;28;20404;-78
2022/03/17 01:36:38;;;;;;;33.88;22.10;;;;;;;7.32;71.37;99584.28;5066290;28;20375;-78
2022/03/17 01:39:18;;;;;;;35.88;23.52;;;;;;;7.31;70.64;99587.97;5056012;28;20036;-78
2022/03/17 01:41:44;;;;;;;38.95;24.42;;;;;;;7.36;71.33;99585.47;5043595;28;20132;-78
2022/03/17 01:44:09;;;;;;;35.65;23.80;;;;;;;7.34;71.27;99587.53;5063467;28;20116;-78
2022/03/17 01:47:26;;;;;;;37.88;24.63;;;;;;;7.34;71.08;99589.34;5060162;28;20394;-78
2022/03/17 01:49:20;;;;;;;35.15;22.40;;;;;;;7.34;70.66;99592.00;5068764;28;20034;-78
2022/03/17 01:51:47;;;;;;;36.60;23.00;;;;;;;7.31;70.61;99580.00;5060239;28;20496;-78
2022/03/17 01:54:13;;;;;;;37.00;23.75;;;;;;;7.33;71.19;99593.06;5061779;28;20067;-78
2022/03/17 01:56:38;;;;;;;35.53;23.67;;;;;;;7.33;70.88;99590.41;5065844;28;20115;-78
2022/03/17 01:59:04;;;;;;;37.63;24.98;;;;;;;7.34;71.31;99584.03;5064956;28;20111;-78
2022/03/17 02:01:29;;;;;;;37.30;24.42;;;;;;;7.29;70.45;99599.81;5066519;28;20119;-78
2022/03/17 02:03:56;;;;;;;38.53;25.70;;;;;;;7.22;71.05;99577.78;5067669;28;20033;-78
2022/03/17 02:06:23;;;;;;;35.95;22.88;;;;;;;7.31;71.14;99593.28;5049285;28;20037;-78
2022/03/17 02:08:48;;;;;;;37.63;23.95;;;;;;;7.25;70.48;99587.97;5061432;28;20033;-78
2022/03/17 02:13:57;;;;;;;36.35;23.25;;;;;;;7.28;70.84;99585.72;5067734;28;20200;-78
2022/03/17 02:16:23;;;;;;;36.70;23.67;;;;;;;7.26;70.78;99579.81;5049611;28;20045;-78
2022/03/17 02:18:48;;;;;;;38.67;23.67;;;;;;;7.27;70.81;99581.41;5059513;28;20479;-78
2022/03/17 02:21:13;;;;;;;37.53;24.27;;;;;;;7.29;70.75;99574.09;5054307;28;20039;-78
2022/03/17 02:26:23;;;;;;;38.20;23.58;;;;;;;7.20;70.45;99583.28;5064106;28;20514;-78
2022/03/17 02:28:48;;;;;;;39.85;25.48;;;;;;;7.22;70.80;99577.78;5075260;28;20028;-78
2022/03/17 02:31:14;;;;;;;35.33;23.95;;;;;;;7.28;71.05;99588.38;5054554;28;20396;-78
2022/03/17 02:33:41;;;;;;;36.22;23.73;;;;;;;7.20;70.92;99587.78;5070070;28;20135;-77
2022/03/17 02:36:08;;;;;;;37.83;23.08;;;;;;;7.22;70.88;99578.59;5058829;28;20033;-78
2022/03/17 02:38:33;;;;;;;34.03;23.25;;;;;;;7.28;71.31;99579.59;5045752;28;20032;-78
2022/03/17 02:40:59;;;;;;;34.70;23.40;;;;;;;7.26;70.73;99569.19;5064032;28;20475;-78
2022/03/17 02:43:24;;;;;;;35.25;23.38;;;;;;;7.24;71.05;99571.22;5054678;28;20028;-78
2022/03/17 02:45:50;;;;;;;39.58;23.70;;;;;;;7.22;71.30;99573.28;5066330;28;20032;-78
2022/03/17 02:48:16;;;;;;;39.35;24.50;;;;;;;7.26;70.88;99571.84;5067982;28;20121;-78
2022/03/17 02:50:42;;;;;;;37.75;25.50;;;;;;;7.18;70.79;99556.16;5060403;28;20432;-78
2022/03/17 02:53:09;;;;;;;35.78;24.42;;;;;;;7.20;70.60;99553.28;5081331;28;20090;-78
2022/03/17 02:55:36;;;;;;;36.63;23.55;;;;;;;7.25;70.89;99561.44;5064983;28;20075;-78
2022/03/17 02:58:03;;;;;;;36.72;23.70;;;;;;;7.23;70.89;99556.31;5061731;28;20033;-78
2022/03/17 03:00:29;;;;;;;34.78;23.38;;;;;;;7.20;70.94;99559.41;5074400;28;20147;-78
2022/03/17 03:02:54;;;;;;;35.67;24.00;;;;;;;7.24;71.49;99567.75;5065209;28;20108;-78
2022/03/17 03:05:19;;;;;;;39.58;23.10;;;;;;;7.17;71.61;99551.03;5066957;28;20559;-78
2022/03/17 03:07:45;;;;;;;39.75;24.95;;;;;;;7.23;71.16;99574.91;5073341;28;20042;-78
2022/03/17 03:10:10;;;;;;;38.20;24.15;;;;;;;7.16;70.90;99568.00;5063635;28;20039;-78
2022/03/17 03:12:37;;;;;;;36.97;23.42;;;;;;;7.18;71.70;99581.88;5057876;28;20048;-78
2022/03/17 03:15:03;;;;;;;38.17;25.35;;;;;;;7.11;71.64;99573.94;5064990;28;20075;-78
2022/03/17 03:17:29;;;;;;;39.40;25.70;;;;;;;7.13;71.37;99571.06;5078208;28;20130;-77
2022/03/17 03:19:54;;;;;;;38.67;23.85;;;;;;;7.16;71.06;99575.97;5043658;28;20499;-78
2022/03/17 03:22:20;;;;;;;41.47;25.70;;;;;;;7.20;70.78;99580.66;5050513;28;20353;-78
2022/03/17 03:24:46;;;;;;;39.58;25.55;;;;;;;7.16;70.80;99576.78;5052297;28;20032;-78
2022/03/17 03:27:11;;;;;;;35.70;23.90;;;;;;;7.14;71.42;99581.44;5064881;28;20617;-78
2022/03/17 03:29:37;;;;;;;38.50;24.52;;;;;;;7.20;71.29;99590.44;5049374;28;20029;-78
2022/03/17 03:32:06;;;;;;;41.53;25.20;;;;;;;7.16;70.87;99583.91;5062699;28;20495;-78
2022/03/17 03:34:32;;;;;;;37.92;26.27;;;;;;;7.15;70.98;99583.09;5051263;28;20048;-77
2022/03/17 03:39:42;;;;;;;42.08;25.50;;;;;;;7.10;71.54;99572.28;5062667;28;20043;-78
2022/03/17 03:42:09;;;;;;;35.50;25.05;;;;;;;7.08;71.06;99571.69;5064138;28;20036;-77
2022/03/17 03:44:35;;;;;;;35.63;23.60;;;;;;;7.11;71.57;99570.44;5055326;28;20024;-78
2022/03/17 03:47:01;;;;;;;38.55;24.80;;;;;;;7.11;71.46;99575.75;5061985;28;20031;-78
2022/03/17 03:49:26;;;;;;;41.00;26.52;;;;;;;7.06;71.11;99570.25;5053132;28;20116;-78
2022/03/17 03:51:52;;;;;;;42.20;25.65;;;;;;;7.07;71.21;99570.06;5076525;28;20021;-78
2022/03/17 03:54:18;;;;;;;43.72;25.67;;;;;;;7.13;71.65;99581.66;5069533;28;20038;-78
2022/03/17 03:56:45;;;;;;;39.35;24.77;;;;;;;7.13;71.15;99576.34;5063021;28;20038;-78
2022/03/17 03:59:14;;;;;;;43.33;25.90;;;;;;;7.14;71.27;99565.53;5062287;28;20031;-77
2022/03/17 04:01:40;;;;;;;43.28;28.08;;;;;;;7.10;71.46;99569.63;5058454;28;20060;-78
2022/03/17 04:04:05;;;;;;;40.63;25.67;;;;;;;7.11;71.54;99576.56;5052159;28;20055;-78
2022/03/17 04:06:34;;;;;;;39.08;24.48;;;;;;;7.06;71.83;99565.75;5060883;28;20523;-78
2022/03/17 04:08:59;;;;;;;39.63;25.13;;;;;;;7.11;71.86;99565.97;5080457;28;20021;-78
2022/03/17 04:11:24;;;;;;;43.95;26.65;;;;;;;7.11;71.50;99568.63;5058725;28;20518;-78
2022/03/17 04:13:50;;;;;;;39.97;26.00;;;;;;;7.09;71.66;99560.03;5063119;28;20128;-78
2022/03/17 04:16:15;;;;;;;38.13;25.15;;;;;;;7.10;71.26;99555.56;5063807;28;20062;-78
2022/03/17 04:18:40;;;;;;;37.55;25.05;;;;;;;7.06;71.58;99556.97;5058754;28;20029;-78
2022/03/17 04:21:06;;;;;;;41.35;25.67;;;;;;;7.04;71.22;99537.78;5060920;28;20036;-78
2022/03/17 04:23:31;;;;;;;43.05;27.35;;;;;;;7.02;71.58;99532.69;5053194;28;20575;-78
2022/03/17 04:25:56;;;;;;;38.53;26.17;;;;;;;6.98;71.05;99542.09;5049555;28;20036;-78
2022/03/17 04:28:21;;;;;;;40.28;25.23;;;;;;;7.05;71.39;99555.38;5046256;28;20070;-78
2022/03/17 04:30:47;;;;;;;41.90;25.85;;;;;;;7.06;71.63;99559.63;5071862;28;20032;-78
2022/03/17 04:33:12;;;;;;;39.45;24.65;;;;;;;7.01;71.55;99544.31;5056405;28;20040;-78
2022/03/17 04:35:37;;;;;;;44.65;27.88;;;;;;;7.07;71.54;99556.78;5057909;28;20063;-78
2022/03/17 04:38:03;;;;;;;39.88;26.17;;;;;;;7.03;71.71;99542.31;5062147;28;20500;-78
2022/03/17 04:40:28;;;;;;;40.17;26.75;;;;;;;7.02;71.20;99534.53;5035193;28;20032;-78
2022/03/17 04:42:53;;;;;;;40.63;25.60;;;;;;;7.05;71.85;99548.22;5060202;28;20041;-78
2022/03/17 04:45:19;;;;;;;39.33;25.23;;;;;;;7.05;70.94;99544.75;5065640;28;20078;-78
2022/03/17 04:47:45;;;;;;;41.92;26.20;;;;;;;7.05;71.27;99542.09;5061151;28;20040;-77
2022/03/17 04:50:10;;;;;;;40.47;26.38;;;;;;;7.04;71.44;99543.09;5069773;28;20036;-78
2022/03/17 04:55:21;;;;;;;45.90;28.40;;;;;;;6.97;71.88;99529.06;5051167;28;20114;-78
2022/03/17 04:57:46;;;;;;;40.10;26.70;;;;;;;7.02;71.34;99538.00;5059654;28;20043;-78
2022/03/17 05:00:12;;;;;;;41.92;26.90;;;;;;;7.04;72.28;99543.91;5060424;28;20044;-78
2022/03/17 05:02:37;;;;;;;46.75;29.08;;;;;;;7.06;72.25;99544.53;5079480;28;20429;-79
2022/03/17 05:05:03;;;;;;;45.17;26.65;;;;;;;7.08;71.50;99552.28;5069009;28;20064;-78
2022/03/17 05:07:28;;;;;;;41.45;27.50;;;;;;;7.01;71.82;99544.31;5072769;28;20082;-78
2022/03/17 05:09:54;;;;;;;43.00;28.85;;;;;;;7.04;71.70;99557.19;5046526;28;20040;-78
2022/03/17 05:12:19;;;;;;;40.88;26.02;;;;;;;7.07;72.16;99559.44;5072907;28;20028;-78
2022/03/17 05:14:44;;;;;;;43.53;27.20;;;;;;;7.01;71.44;99539.03;5072698;28;20043;-78
2022/03/17 05:17:10;;;;;;;43.22;28.23;;;;;;;7.05;72.08;99558.00;5072727;28;20086;-78
2022/03/17 05:19:35;;;;;;;44.30;27.83;;;;;;;7.10;71.75;99563.53;5065668;28;20029;-78
2022/03/17 05:22:01;;;;;;;42.75;28.23;;;;;;;7.04;72.02;99561.69;5050001;28;20408;-78
2022/03/17 05:24:26;;;;;;;38.38;26.63;;;;;;;7.08;71.48;99573.50;5051213;28;20035;-78
2022/03/17 05:26:54;;;;;;;45.83;28.73;;;;;;;7.01;71.68;99565.56;5063877;28;20025;-77
2022/03/17 05:29:19;;;;;;;46.50;28.67;;;;;;;7.12;71.68;99593.31;5054942;28;20024;-78
2022/03/17 05:31:45;;;;;;;43.67;28.13;;;;;;;7.08;71.86;99590.25;5049255;28;20037;-78
2022/03/17 05:34:10;;;;;;;43.28;28.27;;;;;;;7.11;71.21;99599.66;5070718;28;20027;-79
2022/03/17 05:36:35;;;;;;;43.90;29.08;;;;;;;7.07;71.58;99601.09;5079781;28;20114;-79
2022/03/17 05:39:02;;;;;;;42.70;27.58;;;;;;;7.07;71.70;99598.44;5045442;28;20060;-78
2022/03/17 05:41:27;;;;;;;41.88;27.70;;;;;;;7.10;71.72;99601.47;5043902;28;20036;-78
2022/03/17 05:43:52;;;;;;;44.25;28.33;;;;;;;7.04;71.75;99599.66;5068334;28;20040;-78
2022/03/17 05:46:19;;;;;;;46.47;28.65;;;;;;;7.10;71.56;99617.41;5056819;28;20419;-78
2022/03/17 05:48:44;;;;;;;44.22;28.17;;;;;;;7.14;71.78;99623.91;5079375;28;20483;-78
2022/03/17 05:51:09;;;;;;;45.80;27.60;;;;;;;7.14;71.60;99629.22;5073554;28;20089;-78
2022/03/17 05:53:35;;;;;;;47.83;30.58;;;;;;;7.12;71.96;99631.28;5073004;28;20041;-78
2022/03/17 05:56:00;;;;;;;42.42;27.95;;;;;;;7.15;71.67;99633.53;5071936;28;20028;-78
2022/03/17 05:58:25;;;;;;;42.10;27.80;;;;;;;7.08;71.60;99618.63;5071432;28;20025;-78
2022/03/17 06:00:52;;;;;;;43.05;27.45;;;;;;;7.15;71.41;99635.38;5072106;28;20035;-78
2022/03/17 06:03:17;;;;;;;46.28;27.70;;;;;;;7.15;71.83;99630.06;5071025;28;20025;-78
2022/03/17 06:05:43;;;;;;;43.13;28.40;;;;;;;7.13;71.70;99632.94;5079781;28;20039;-78
2022/03/17 06:08:09;;;;;;;42.92;27.65;;;;;;;7.05;71.28;99617.22;5067638;28;20523;-78
2022/03/17 06:10:34;;;;;;;43.75;29.48;;;;;;;7.10;71.93;99625.38;5074246;28;20798;-78
2022/03/17 06:13:02;;;;;;;48.20;29.60;;;;;;;7.16;71.96;99631.69;5069326;28;20033;-78
2022/03/17 06:15:28;;;;;;;45.05;29.00;;;;;;;7.17;72.04;99633.31;5054960;28;20029;-78
2022/03/17 06:17:56;;;;;;;43.13;28.67;;;;;;;7.17;70.95;99642.09;5085393;28;20032;-78
2022/03/17 06:20:23;;;;;;;40.95;28.67;;;;;;;7.10;71.46;99622.72;5085391;28;20025;-78
2022/03/17 06:22:51;;;;;;;47.83;30.02;;;;;;;7.15;71.79;99630.06;5074110;28;20028;-77
2022/03/17 06:25:19;;;;;;;47.88;29.95;;;;;;;7.19;71.66;99636.56;5054016;28;20032;-78
2022/03/17 06:27:45;;;;;;;42.67;28.55;;;;;;;7.16;71.51;99627.22;5069657;28;20045;-78
2022/03/17 06:30:23;;;;;;;45.60;30.85;;;;;;;7.19;71.69;99632.09;5071265;28;20035;-79
2022/03/17 06:32:50;;;;;;;43.35;28.73;;;;;;;7.25;71.84;99641.09;5068046;28;20035;-78
2022/03/17 06:35:18;;;;;;;46.38;30.27;;;;;;;7.20;71.25;99631.09;5082891;28;20028;-78
2022/03/17 06:37:45;;;;;;;42.65;30.00;;;;;;;7.21;71.80;99632.69;5045478;28;20060;-78
2022/03/17 06:40:11;;;;;;;46.28;31.00;;;;;;;7.30;72.05;99639.44;5075149;28;20025;-78
2022/03/17 06:42:37;;;;;;;46.47;31.75;;;;;;;7.33;71.79;99646.16;5088263;28;20032;-78
2022/03/17 06:45:02;;;;;;;47.00;30.98;;;;;;;7.32;71.76;99645.34;5052255;28;20078;-78
2022/03/17 06:47:28;;;;;;;49.13;32.03;;;;;;;7.31;71.10;99635.75;5074318;28;20081;-78
2022/03/17 06:49:53;;;;;;;47.55;31.83;;;;;;;7.40;71.69;99644.31;5092157;28;20042;-78
2022/03/17 06:52:18;;;;;;;51.85;33.00;;;;;;;7.36;71.32;99635.13;5069734;28;20450;-78
2022/03/17 06:54:44;;;;;;;47.55;32.15;;;;;;;7.33;71.67;99633.72;5071582;28;20060;-78
2022/03/17 06:57:10;;;;;;;46.60;32.97;;;;;;;7.36;71.89;99635.13;5071709;28;20077;-78
2022/03/17 06:59:35;;;;;;;44.53;31.48;;;;;;;7.49;71.48;99645.72;5071859;28;20032;-78
2022/03/17 07:02:00;;;;;;;51.25;33.55;;;;;;;7.50;71.18;99652.66;5053560;28;20031;-78
2022/03/17 07:04:26;;;;;;;51.72;33.80;;;;;;;7.44;71.57;99646.34;5054698;28;20025;-78
2022/03/17 07:06:51;;;;;;;48.45;33.03;;;;;;;7.51;72.09;99654.28;5018914;28;20025;-78
2022/03/17 07:09:16;;;;;;;48.58;32.63;;;;;;;7.61;72.00;99661.81;5054143;28;20052;-78
2022/03/17 07:11:44;;;;;;;47.55;33.83;;;;;;;7.58;71.22;99663.03;5071457;28;20040;-78
2022/03/17 07:14:10;;;;;;;47.10;33.42;;;;;;;7.64;71.30;99677.34;5051455;28;20029;-78
2022/03/17 07:16:35;;;;;;;47.97;33.53;;;;;;;7.58;71.46;99661.19;5052111;28;20086;-78
2022/03/17 07:19:00;;;;;;;54.20;34.20;;;;;;;7.70;71.60;99676.50;5071579;28;20036;-78
2022/03/17 07:21:25;;;;;;;48.55;34.10;;;;;;;7.70;70.65;99672.00;5050846;28;20765;-78
2022/03/17 07:23:51;;;;;;;48.95;34.20;;;;;;;7.70;70.61;99679.16;5034435;28;20029;-78
2022/03/17 07:26:17;;;;;;;50.30;35.00;;;;;;;7.66;70.85;99677.94;5052578;28;20100;-78
2022/03/17 07:28:44;;;;;;;48.60;34.28;;;;;;;7.78;70.20;99692.19;5068023;28;20029;-79
2022/03/17 07:31:09;;;;;;;51.40;35.20;;;;;;;7.82;69.78;99698.75;5050938;28;20033;-78
2022/03/17 07:33:34;;;;;;;49.42;33.38;;;;;;;7.84;70.53;99689.53;5067560;28;20131;-78
2022/03/17 07:35:59;;;;;;;56.55;35.50;;;;;;;7.87;71.20;99691.78;5072128;28;20106;-78
2022/03/17 07:38:25;;;;;;;50.28;34.45;;;;;;;7.91;70.63;99692.16;5049612;28;20123;-78
2022/03/17 07:40:50;;;;;;;52.58;35.17;;;;;;;7.91;70.68;99700.13;5068969;28;20067;-78
2022/03/17 07:43:15;;;;;;;49.33;33.00;;;;;;;7.95;70.46;99707.47;5071515;28;20034;-78
2022/03/17 07:45:41;;;;;;;54.58;35.60;;;;;;;7.97;70.36;99705.41;5070370;28;20028;-78
2022/03/17 07:48:06;;;;;;;52.05;34.67;;;;;;;7.99;70.67;99706.06;5069597;28;20115;-78
2022/03/17 07:50:35;;;;;;;50.10;32.72;;;;;;;8.01;70.50;99703.19;5070347;28;20081;-78
2022/03/17 07:53:00;;;;;;;49.08;33.78;;;;;;;8.09;70.78;99717.03;5070111;28;20032;-78
2022/03/17 07:55:27;;;;;;;49.83;35.35;;;;;;;8.08;70.45;99709.28;5069334;28;20079;-78
2022/03/17 07:57:53;;;;;;;50.38;33.70;;;;;;;8.20;69.89;99731.50;5070048;28;20468;-78
2022/03/17 08:00:18;;;;;;;45.55;33.35;;;;;;;8.09;70.23;99708.25;5071796;28;20024;-78
2022/03/17 08:02:43;;;;;;;47.40;33.47;;;;;;;8.20;69.69;99732.34;5033552;28;20037;-78
2022/03/17 08:05:10;;;;;;;50.53;34.85;;;;;;;8.30;69.30;99732.72;5050092;28;20116;-78
2022/03/17 08:07:36;;;;;;;47.85;33.22;;;;;;;8.24;69.28;99722.91;5051071;28;20439;-78
2022/03/17 08:10:02;;;;;;;50.13;33.75;;;;;;;8.35;69.68;99729.44;5051166;28;20025;-77
2022/03/17 08:12:28;;;;;;;48.03;33.78;;;;;;;8.37;69.31;99727.38;5050670;28;20256;-78
2022/03/17 08:14:53;;;;;;;55.08;35.20;;;;;;;8.33;69.66;99720.84;5050584;28;20021;-78
2022/03/17 08:17:19;;;;;;;51.90;33.63;;;;;;;8.40;69.21;99720.81;5069486;28;20028;-78
2022/03/17 08:19:45;;;;;;;51.10;34.88;;;;;;;8.47;69.51;99725.09;5069647;28;20499;-78
2022/03/17 08:22:10;;;;;;;50.22;35.42;;;;;;;8.51;69.49;99728.13;5053144;28;20032;-78
2022/03/17 08:24:35;;;;;;;46.85;31.75;;;;;;;8.48;69.38;99729.34;5070168;28;20045;-78
2022/03/17 08:27:02;;;;;;;48.30;34.03;;;;;;;8.54;69.29;99735.69;5070884;28;20048;-78
2022/03/17 08:29:29;;;;;;;49.50;33.65;;;;;;;8.43;68.96;99710.56;5069744;28;20491;-78
2022/03/17 08:31:54;;;;;;;47.72;32.28;;;;;;;8.54;69.33;99733.81;5069312;28;20480;-78
2022/03/17 08:34:19;;;;;;;45.83;32.97;;;;;;;8.54;69.57;99733.03;5070187;28;20031;-78
2022/03/17 08:36:45;;;;;;;46.80;33.45;;;;;;;8.49;69.22;99722.19;5069844;28;20040;-78
2022/03/17 08:39:10;;;;;;;45.53;32.30;;;;;;;8.56;68.36;99741.59;5069723;28;20029;-78
2022/03/17 08:41:36;;;;;;;46.90;33.05;;;;;;;8.57;68.88;99743.22;5053207;28;20127;-78
2022/03/17 08:44:01;;;;;;;44.38;30.75;;;;;;;8.62;68.83;99757.53;5049412;28;20029;-78
2022/03/17 08:49:19;;;;;;;47.63;32.63;;;;;;;8.62;68.65;99765.53;5070301;28;20063;-78
2022/03/17 08:51:52;;;;;;;44.55;31.42;;;;;;;8.66;68.95;99768.56;5051703;28;20029;-78
2022/03/17 08:54:22;;;;;;;47.00;32.40;;;;;;;8.55;68.81;99756.75;5053179;28;20428;-78
2022/03/17 08:57:01;;;;;;;49.47;32.92;;;;;;;8.68;68.79;99777.16;5062988;28;20025;-78
2022/03/17 08:59:31;;;;;;;47.47;31.70;;;;;;;8.68;68.30;99777.97;5068465;28;20090;-78
2022/03/17 09:01:58;;;;;;;47.40;31.98;;;;;;;8.65;68.42;99772.25;5053173;28;20036;-78
2022/03/17 09:04:23;;;;;;;42.40;31.65;;;;;;;8.66;68.42;99780.03;5070530;28;20037;-78
2022/03/17 09:06:48;;;;;;;43.53;30.40;;;;;;;8.72;68.58;99778.34;5055521;28;20024;-78
2022/03/17 09:09:14;;;;;;;53.15;32.33;;;;;;;8.71;68.78;99784.72;5053166;28;20032;-78
2022/03/17 09:11:39;;;;;;;44.88;31.23;;;;;;;8.73;69.13;99796.78;5054927;28;20029;-78
2022/03/17 09:14:07;;;;;;;42.28;30.33;;;;;;;8.66;68.68;99780.03;5053496;28;20025;-78
2022/03/17 09:16:32;;;;;;;46.10;32.13;;;;;;;8.66;68.58;99793.34;5053847;28;20025;-78
2022/03/17 09:18:58;;;;;;;47.75;32.88;;;;;;;8.68;68.39;99780.63;5053238;28;20028;-78
2022/03/17 09:21:25;;;;;;;44.08;31.30;;;;;;;8.67;68.59;99778.97;5039503;28;20028;-78
2022/03/17 09:23:51;;;;;;;48.55;33.10;;;;;;;8.68;68.97;99790.44;5073846;28;20075;-78
2022/03/17 09:26:16;;;;;;;44.58;31.95;;;;;;;8.68;69.31;99798.44;5072747;28;20158;-78
2022/03/17 09:28:42;;;;;;;43.90;32.03;;;;;;;8.62;69.32;99781.47;5055097;28;20398;-78
2022/03/17 09:31:08;;;;;;;45.47;31.80;;;;;;;8.71;69.13;99801.50;5072632;28;20028;-78
2022/03/17 09:33:33;;;;;;;48.30;32.65;;;;;;;8.67;69.23;99796.81;5072848;28;20059;-78
2022/03/17 09:36:00;;;;;;;48.38;32.80;;;;;;;8.65;69.44;99793.56;5073230;28;20056;-78
2022/03/17 09:38:26;;;;;;;47.67;33.75;;;;;;;8.70;69.65;99810.50;5055850;28;20051;-78
2022/03/17 09:40:51;;;;;;;45.45;30.60;;;;;;;8.65;70.13;99804.19;5073425;28;20036;-78
2022/03/17 09:43:19;;;;;;;42.22;31.73;;;;;;;8.64;69.41;99811.34;5073953;28;20036;-78
2022/03/17 09:45:50;;;;;;;47.53;32.47;;;;;;;8.68;70.24;99823.22;5072939;28;20035;-78
2022/03/17 09:48:16;;;;;;;50.35;33.20;;;;;;;8.67;68.74;99823.44;5072345;28;20102;-78
2022/03/17 09:50:42;;;;;;;47.88;33.03;;;;;;;8.61;69.71;99821.59;5065276;28;20036;-78
2022/03/17 09:53:08;;;;;;;47.00;32.63;;;;;;;8.68;69.50;99825.03;5061260;28;20028;-78
2022/03/17 09:55:34;;;;;;;47.03;32.67;;;;;;;8.62;69.50;99826.72;5074135;28;20020;-78
2022/03/17 09:58:02;;;;;;;42.88;30.48;;;;;;;8.62;70.11;99825.91;5055691;28;20025;-78
2022/03/17 10:00:47;;;;;;;43.00;31.38;;;;;;;8.65;69.60;99836.94;5072392;28;20024;-78
2022/03/17 10:03:25;;;;;;;44.78;31.70;;;;;;;8.66;69.92;99833.25;5057867;28;20089;-78
2022/03/17 10:05:51;;;;;;;43.42;30.52;;;;;;;8.59;70.02;99826.31;5072084;28;20024;-78
2022/03/17 10:08:17;;;;;;;45.17;31.65;;;;;;;8.67;70.43;99842.84;5071817;28;20475;-78
2022/03/17 10:10:43;;;;;;;45.45;30.80;;;;;;;8.68;70.19;99843.69;5072150;28;20029;-78
2022/03/17 10:13:13;;;;;;;43.17;31.52;;;;;;;8.68;69.36;99846.34;5072794;28;20025;-78
2022/03/17 10:15:39;;;;;;;46.30;32.00;;;;;;;8.68;69.72;99847.16;5072268;28;20119;-78
2022/03/17 10:18:19;;;;;;;45.70;30.05;;;;;;;8.70;70.45;99857.59;5068825;28;20118;-78
2022/03/17 10:20:45;;;;;;;44.28;32.17;;;;;;;8.62;70.31;99842.69;5073806;28;20017;-78
2022/03/17 10:23:11;;;;;;;44.03;31.25;;;;;;;8.69;70.40;99864.75;5072169;28;20029;-78
2022/03/17 10:25:37;;;;;;;43.55;31.98;;;;;;;8.69;70.13;99864.75;5039257;28;20047;-78
2022/03/17 10:28:03;;;;;;;45.65;30.25;;;;;;;8.64;70.43;99861.09;5055091;28;20024;-78
2022/03/17 10:30:35;;;;;;;43.40;30.98;;;;;;;8.70;70.19;99868.22;5073503;28;20021;-78
2022/03/17 10:33:15;;;;;;;54.17;33.90;;;;;;;8.71;70.72;99878.69;5073122;28;20029;-78
2022/03/17 10:35:45;;;;;;;47.70;31.35;;;;;;;8.70;70.22;99886.84;5072062;28;20031;-78
2022/03/17 10:38:19;;;;;;;46.63;32.88;;;;;;;8.68;70.27;99886.25;5070957;28;20032;-78
2022/03/17 10:40:59;;;;;;;47.17;33.38;;;;;;;8.68;70.26;99891.56;5055311;28;20035;-78
2022/03/17 10:43:25;;;;;;;43.75;32.70;;;;;;;8.67;70.15;99888.09;5071410;28;20024;-78
2022/03/17 10:46:13;;;;;;;43.40;30.08;;;;;;;8.65;70.50;99898.13;5071581;28;20430;-78
2022/03/17 10:48:55;;;;;;;41.65;29.90;;;;;;;8.59;70.42;99898.16;5070394;28;20074;-78
2022/03/17 10:51:38;;;;;;;43.08;29.08;;;;;;;8.60;70.31;99905.94;5055017;28;20124;-77
2022/03/17 10:54:15;;;;;;;49.42;33.03;;;;;;;8.60;70.11;99913.94;5071320;28;20383;-77
2022/03/17 10:56:55;;;;;;;47.05;32.35;;;;;;;8.55;70.42;99910.25;5072839;28;20029;-77
2022/03/17 10:59:21;;;;;;;46.92;32.83;;;;;;;8.48;71.07;99904.13;5068614;28;20029;-77
2022/03/17 11:01:47;;;;;;;52.08;35.60;;;;;;;8.55;70.77;99927.03;5070637;28;20038;-77
2022/03/17 11:04:12;;;;;;;53.53;34.33;;;;;;;8.52;71.47;99932.75;5070892;28;20434;-77
2022/03/17 11:06:39;;;;;;;46.90;33.38;;;;;;;8.52;70.88;99939.94;5071019;28;20063;-77
2022/03/17 11:09:08;;;;;;;50.40;34.15;;;;;;;8.50;71.33;99945.47;5070069;28;20046;-77
2022/03/17 11:11:35;;;;;;;50.80;33.35;;;;;;;8.49;71.12;99951.00;5072244;28;20032;-77
2022/03/17 11:14:00;;;;;;;52.72;34.83;;;;;;;8.46;71.51;99946.91;5072067;28;20300;-77
2022/03/17 11:16:43;;;;;;;51.85;34.38;;;;;;;8.44;71.37;99956.94;5054118;28;20123;-77
2022/03/17 11:19:12;;;;;;;48.60;34.50;;;;;;;8.45;71.14;99963.91;5069794;28;20493;-77
2022/03/17 11:21:38;;;;;;;50.70;33.72;;;;;;;8.43;71.37;99959.81;5070748;28;20052;-77
2022/03/17 11:24:07;;;;;;;50.75;34.50;;;;;;;8.30;71.78;99944.66;5071798;28;20125;-77
2022/03/17 11:26:39;;;;;;;54.75;36.25;;;;;;;8.46;70.97;99967.38;5070784;28;20040;-77
2022/03/17 11:29:21;;;;;;;51.60;35.22;;;;;;;8.43;71.91;99971.25;5069055;28;20416;-77
2022/03/17 11:31:56;;;;;;;52.30;35.67;;;;;;;8.44;71.87;99974.75;5040390;28;20033;-77
2022/03/17 11:34:47;;;;;;;56.13;36.58;;;;;;;8.45;71.48;99984.38;5054656;28;20054;-77
2022/03/17 11:37:19;;;;;;;52.92;36.90;;;;;;;8.43;72.47;99979.22;5063034;28;20131;-77
2022/03/17 11:39:51;;;;;;;57.67;37.75;;;;;;;8.43;72.43;99992.53;5087997;28;20032;-77